createdAt,value
2022-07-25T00:01:39.125Z,9.38
2022-07-25T00:04:09.479Z,10.35
2022-07-25T00:06:41.655Z,9.98
2022-07-25T00:09:10.465Z,10.18
2022-07-25T00:11:39.678Z,9.90
2022-07-25T00:14:10.135Z,10.20
2022-07-25T00:19:27.773Z,10.77
2022-07-25T00:24:44.155Z,11.13
2022-07-25T00:27:13.424Z,10.85
2022-07-25T00:29:43.343Z,10.32
2022-07-25T00:32:11.951Z,10.32
2022-07-25T00:34:40.639Z,11.93
2022-07-25T00:37:09.640Z,11.77
2022-07-25T00:39:38.127Z,11.13
2022-07-25T00:42:07.288Z,13.00
2022-07-25T00:44:36.135Z,11.57
2022-07-25T00:47:06.909Z,10.82
2022-07-25T00:49:35.757Z,10.75
2022-07-25T00:52:05.338Z,11.30
2022-07-25T00:54:34.352Z,10.43
2022-07-25T00:57:02.934Z,11.20
2022-07-25T00:59:32.537Z,10.43
2022-07-25T01:02:02.263Z,10.57
2022-07-25T01:04:34.371Z,11.07
2022-07-25T01:07:03.658Z,11.70
2022-07-25T01:09:33.022Z,11.35
2022-07-25T01:12:01.623Z,12.18
2022-07-25T01:14:30.703Z,12.00
2022-07-25T01:16:59.071Z,11.32
2022-07-25T01:19:28.045Z,10.75
2022-07-25T01:21:57.966Z,10.70
2022-07-25T01:24:26.782Z,10.60
2022-07-25T01:26:55.164Z,10.50
2022-07-25T01:29:24.439Z,11.10
2022-07-25T01:31:52.960Z,10.93
2022-07-25T01:34:22.071Z,10.60
2022-07-25T01:36:50.691Z,12.13
2022-07-25T01:39:21.105Z,10.60
2022-07-25T01:41:49.773Z,12.05
2022-07-25T01:44:18.612Z,10.45
2022-07-25T01:46:47.112Z,12.05
2022-07-25T01:49:16.203Z,11.70
2022-07-25T01:51:44.774Z,10.98
2022-07-25T01:54:13.875Z,11.00
2022-07-25T01:56:48.181Z,11.30
2022-07-25T01:59:18.097Z,10.68
2022-07-25T02:01:46.646Z,10.35
2022-07-25T02:04:15.481Z,13.10
2022-07-25T02:06:43.914Z,10.70
2022-07-25T02:09:12.873Z,10.95
2022-07-25T02:11:41.581Z,11.80
2022-07-25T02:14:11.941Z,11.30
2022-07-25T02:16:40.400Z,12.63
2022-07-25T02:19:09.620Z,11.30
2022-07-25T02:21:38.113Z,12.43
2022-07-25T02:24:08.475Z,10.68
2022-07-25T02:26:37.501Z,12.55
2022-07-25T02:29:06.670Z,12.15
2022-07-25T02:31:36.572Z,11.02
2022-07-25T02:34:06.157Z,11.23
2022-07-25T02:36:34.805Z,12.52
2022-07-25T02:39:04.574Z,10.75
2022-07-25T02:41:33.021Z,10.95
2022-07-25T02:44:01.703Z,11.70
2022-07-25T02:46:30.701Z,11.07
2022-07-25T02:49:00.654Z,11.50
2022-07-25T02:51:29.633Z,11.38
2022-07-25T02:53:59.009Z,10.57
2022-07-25T02:56:30.151Z,11.45
2022-07-25T02:59:00.903Z,11.10
2022-07-25T03:01:29.820Z,12.35
2022-07-25T03:03:58.307Z,11.55
2022-07-25T03:06:28.845Z,11.65
2022-07-25T03:08:57.513Z,12.30
2022-07-25T03:11:26.137Z,10.98
2022-07-25T03:13:54.956Z,11.45
2022-07-25T03:16:24.174Z,12.88
2022-07-25T03:18:54.773Z,14.63
2022-07-25T03:21:23.907Z,12.00
2022-07-25T03:23:53.809Z,11.68
2022-07-25T03:26:22.990Z,11.95
2022-07-25T03:28:53.526Z,11.43
2022-07-25T03:31:22.784Z,12.15
2022-07-25T03:33:51.379Z,14.98
2022-07-25T03:36:20.753Z,12.88
2022-07-25T03:38:49.230Z,11.10
2022-07-25T03:41:19.508Z,14.02
2022-07-25T03:43:47.997Z,13.27
2022-07-25T03:46:17.020Z,10.70
2022-07-25T03:48:45.649Z,12.05
2022-07-25T03:51:14.751Z,11.40
2022-07-25T03:54:00.835Z,10.68
2022-07-25T03:56:32.901Z,11.38
2022-07-25T03:59:01.307Z,12.25
2022-07-25T04:01:30.307Z,11.43
2022-07-25T04:03:59.054Z,12.73
2022-07-25T04:06:28.185Z,11.95
2022-07-25T04:08:56.846Z,11.85
2022-07-25T04:11:25.869Z,11.27
2022-07-25T04:13:56.020Z,11.90
2022-07-25T04:16:25.115Z,11.43
2022-07-25T04:18:57.332Z,12.00
2022-07-25T04:21:27.895Z,12.95
2022-07-25T04:23:56.548Z,11.05
2022-07-25T04:26:25.351Z,11.93
2022-07-25T04:28:57.654Z,13.25
2022-07-25T04:31:27.078Z,11.45
2022-07-25T04:33:55.707Z,11.80
2022-07-25T04:36:24.508Z,11.98
2022-07-25T04:38:53.085Z,11.48
2022-07-25T04:41:22.566Z,12.10
2022-07-25T04:43:51.034Z,11.13
2022-07-25T04:46:22.211Z,11.82
2022-07-25T04:48:51.243Z,11.38
2022-07-25T04:51:21.576Z,13.35
2022-07-25T04:53:50.410Z,13.10
2022-07-25T04:56:19.595Z,10.88
2022-07-25T04:58:48.202Z,11.95
2022-07-25T05:01:17.071Z,12.07
2022-07-25T05:03:50.188Z,12.50
2022-07-25T05:06:20.101Z,12.60
2022-07-25T05:08:48.582Z,13.45
2022-07-25T05:11:17.934Z,13.02
2022-07-25T05:13:46.364Z,12.40
2022-07-25T05:16:15.769Z,12.45
2022-07-25T05:18:44.160Z,13.32
2022-07-25T05:21:14.856Z,14.52
2022-07-25T05:23:44.277Z,15.40
2022-07-25T05:26:12.969Z,12.57
2022-07-25T05:28:41.825Z,12.88
2022-07-25T05:31:10.414Z,14.00
2022-07-25T05:33:39.198Z,14.63
2022-07-25T05:36:09.060Z,15.15
2022-07-25T05:38:39.518Z,14.88
2022-07-25T05:41:08.165Z,14.60
2022-07-25T05:43:37.172Z,17.48
2022-07-25T05:46:06.561Z,18.00
2022-07-25T05:48:35.626Z,16.48
2022-07-25T05:51:04.596Z,15.00
2022-07-25T05:53:33.412Z,13.68
2022-07-25T05:56:03.436Z,14.38
2022-07-25T05:58:32.641Z,14.68
2022-07-25T06:01:01.053Z,15.93
2022-07-25T06:03:30.187Z,14.02
2022-07-25T06:05:58.853Z,15.32
2022-07-25T06:08:29.138Z,14.48
2022-07-25T06:10:58.893Z,14.18
2022-07-25T06:13:28.913Z,15.43
2022-07-25T06:15:58.165Z,13.93
2022-07-25T06:18:27.474Z,14.50
2022-07-25T06:20:56.492Z,14.30
2022-07-25T06:23:27.710Z,14.90
2022-07-25T06:25:57.085Z,15.57
2022-07-25T06:28:25.559Z,16.45
2022-07-25T06:30:56.377Z,16.98
2022-07-25T06:33:25.289Z,17.02
2022-07-25T06:35:54.487Z,13.23
2022-07-25T06:38:23.016Z,13.80
2022-07-25T06:40:51.522Z,12.98
2022-07-25T06:43:21.315Z,15.10
2022-07-25T06:45:50.148Z,12.38
2022-07-25T06:48:20.735Z,15.25
2022-07-25T06:50:49.509Z,13.40
2022-07-25T06:53:18.236Z,12.88
2022-07-25T06:55:47.267Z,13.25
2022-07-25T06:58:15.767Z,13.43
2022-07-25T07:00:44.436Z,14.35
2022-07-25T07:03:13.120Z,13.93
2022-07-25T07:05:43.478Z,14.88
2022-07-25T07:08:12.000Z,14.10
2022-07-25T07:10:43.055Z,13.65
2022-07-25T07:13:13.407Z,12.70
2022-07-25T07:15:47.286Z,14.35
2022-07-25T07:18:16.026Z,13.05
2022-07-25T07:20:47.252Z,12.70
2022-07-25T07:23:16.770Z,14.50
2022-07-25T07:25:47.203Z,15.00
2022-07-25T07:28:16.381Z,14.15
2022-07-25T07:31:14.440Z,12.73
2022-07-25T07:33:33.915Z,13.20
2022-07-25T07:36:03.891Z,11.75
2022-07-25T07:38:32.809Z,12.55
2022-07-25T07:41:01.845Z,12.25
2022-07-25T07:43:32.395Z,12.55
2022-07-25T07:46:01.939Z,12.40
2022-07-25T07:48:31.910Z,12.27
2022-07-25T07:51:01.655Z,13.15
2022-07-25T07:53:49.816Z,13.90
2022-07-25T07:56:19.365Z,11.90
2022-07-25T07:58:48.388Z,12.30
2022-07-25T08:01:17.046Z,13.30
2022-07-25T08:03:45.998Z,12.75
2022-07-25T08:06:14.616Z,12.80
2022-07-25T08:08:44.885Z,12.45
2022-07-25T08:11:13.440Z,20.58
2022-07-25T08:13:42.341Z,14.07
2022-07-25T08:16:11.940Z,11.95
2022-07-25T08:18:41.349Z,13.30
2022-07-25T08:21:10.778Z,12.10
2022-07-25T08:23:40.214Z,14.55
2022-07-25T08:26:10.721Z,12.20
2022-07-25T08:28:39.269Z,12.27
2022-07-25T08:31:09.427Z,13.38
2022-07-25T08:33:38.022Z,13.60
2022-07-25T08:36:07.706Z,13.60
2022-07-25T08:38:36.223Z,14.98
2022-07-25T08:41:05.292Z,12.98
2022-07-25T08:43:37.780Z,12.27
2022-07-25T08:46:08.236Z,13.18
2022-07-25T08:48:38.946Z,11.95
2022-07-25T08:51:08.899Z,12.23
2022-07-25T08:53:38.302Z,11.65
2022-07-25T08:56:14.627Z,12.48
2022-07-25T08:58:48.364Z,11.57
2022-07-25T09:01:16.948Z,11.27
2022-07-25T09:03:46.133Z,11.27
2022-07-25T09:06:16.958Z,11.40
2022-07-25T09:08:53.188Z,12.05
2022-07-25T09:11:32.335Z,11.65
2022-07-25T09:14:06.844Z,11.25
2022-07-25T09:16:39.462Z,11.80
2022-07-25T09:19:11.949Z,15.27
2022-07-25T09:21:42.179Z,14.38
2022-07-25T09:24:17.368Z,11.73
2022-07-25T09:26:48.638Z,11.40
2022-07-25T09:29:21.525Z,11.50
2022-07-25T09:31:50.854Z,12.43
2022-07-25T09:34:31.923Z,12.70
2022-07-25T09:37:01.332Z,11.55
2022-07-25T09:39:46.322Z,11.63
2022-07-25T09:42:21.986Z,11.65
2022-07-25T09:45:03.159Z,11.35
2022-07-25T09:47:33.421Z,12.25
2022-07-25T09:50:02.844Z,13.77
2022-07-25T09:52:34.083Z,12.45
2022-07-25T09:55:05.471Z,15.73
2022-07-25T09:57:34.496Z,11.93
2022-07-25T10:00:06.966Z,10.57
2022-07-25T10:02:51.069Z,13.02
2022-07-25T10:05:31.278Z,10.93
2022-07-25T10:08:01.622Z,12.07
2022-07-25T10:10:32.319Z,11.02
2022-07-25T10:13:08.022Z,11.82
2022-07-25T10:15:49.248Z,11.23
2022-07-25T10:18:19.816Z,13.25
2022-07-25T10:20:50.155Z,11.23
2022-07-25T10:23:24.222Z,10.55
2022-07-25T10:26:08.934Z,11.23
2022-07-25T10:28:41.181Z,11.52
2022-07-25T10:31:23.706Z,10.82
2022-07-25T10:33:54.414Z,10.55
2022-07-25T10:36:24.270Z,10.73
2022-07-25T10:38:57.579Z,11.10
2022-07-25T10:41:27.386Z,11.20
2022-07-25T10:44:01.723Z,11.00
2022-07-25T10:46:36.300Z,10.23
2022-07-25T10:49:07.044Z,11.57
2022-07-25T10:51:41.581Z,10.23
2022-07-25T10:54:14.955Z,17.63
2022-07-25T10:56:54.071Z,11.10
2022-07-25T10:59:34.445Z,10.32
2022-07-25T11:02:06.599Z,10.48
2022-07-25T11:04:36.411Z,10.02
2022-07-25T11:07:11.978Z,9.82
2022-07-25T11:09:41.742Z,10.15
2022-07-25T11:12:11.312Z,10.32
2022-07-25T11:14:42.727Z,11.48
2022-07-25T11:17:16.418Z,10.00
2022-07-25T11:19:53.889Z,9.38
2022-07-25T11:22:22.973Z,9.77
2022-07-25T11:24:51.601Z,10.18
2022-07-25T11:27:26.468Z,9.35
2022-07-25T11:29:55.429Z,10.50
2022-07-25T11:32:25.289Z,9.98
2022-07-25T11:34:55.120Z,10.00
2022-07-25T11:37:24.291Z,11.65
2022-07-25T11:39:53.141Z,11.55
2022-07-25T11:42:22.954Z,10.38
2022-07-25T11:44:54.473Z,10.32
2022-07-25T11:47:27.830Z,9.70
2022-07-25T11:49:58.206Z,9.43
2022-07-25T11:52:30.351Z,9.70
2022-07-25T11:55:00.567Z,8.93
2022-07-25T11:57:31.207Z,9.65
2022-07-25T12:00:01.314Z,9.25
2022-07-25T12:02:39.286Z,8.75
2022-07-25T12:05:10.632Z,9.48
2022-07-25T12:07:41.667Z,9.15
2022-07-25T12:10:13.730Z,9.25
2022-07-25T12:12:44.687Z,9.32
2022-07-25T12:15:15.032Z,9.68
2022-07-25T12:17:44.978Z,9.15
2022-07-25T12:20:18.512Z,10.80
2022-07-25T12:22:48.205Z,9.38
2022-07-25T12:25:16.745Z,8.75
2022-07-25T12:27:45.555Z,8.73
2022-07-25T12:30:14.999Z,8.93
2022-07-25T12:32:45.310Z,9.40
2022-07-25T12:35:15.868Z,9.30
2022-07-25T12:37:45.750Z,8.45
2022-07-25T12:40:16.522Z,8.35
2022-07-25T12:42:47.105Z,8.35
2022-07-25T12:45:17.206Z,8.85
2022-07-25T12:47:49.286Z,8.40
2022-07-25T12:50:18.544Z,9.15
2022-07-25T12:52:47.844Z,7.75
2022-07-25T12:55:19.687Z,8.45
2022-07-25T12:57:48.844Z,8.88
2022-07-25T13:00:19.986Z,8.95
2022-07-25T13:02:52.333Z,8.77
2022-07-25T13:05:21.551Z,8.80
2022-07-25T13:07:51.403Z,8.30
2022-07-25T13:10:21.320Z,8.77
2022-07-25T13:12:49.844Z,8.13
2022-07-25T13:15:20.970Z,8.88
2022-07-25T13:17:51.136Z,8.20
2022-07-25T13:20:20.423Z,7.57
2022-07-25T13:22:48.946Z,8.13
2022-07-25T13:25:18.716Z,8.73
2022-07-25T13:27:49.439Z,7.10
2022-07-25T13:30:18.624Z,7.90
2022-07-25T13:32:47.029Z,10.40
2022-07-25T13:35:20.400Z,8.38
2022-07-25T13:37:50.439Z,7.68
2022-07-25T13:40:18.930Z,7.22
2022-07-25T13:42:48.255Z,7.45
2022-07-25T13:45:16.920Z,7.40
2022-07-25T13:47:46.297Z,8.77
2022-07-25T13:50:14.903Z,6.90
2022-07-25T13:52:44.668Z,7.65
2022-07-25T13:55:13.225Z,7.03
2022-07-25T13:57:42.540Z,7.45
2022-07-25T14:00:12.811Z,6.95
2022-07-25T14:02:41.486Z,7.15
2022-07-25T14:05:10.775Z,6.35
2022-07-25T14:07:40.572Z,7.32
2022-07-25T14:10:11.423Z,6.78
2022-07-25T14:12:40.623Z,6.60
2022-07-25T14:15:10.005Z,6.40
2022-07-25T14:17:39.696Z,6.20
2022-07-25T14:20:09.811Z,5.88
2022-07-25T14:22:39.610Z,5.55
2022-07-25T14:25:10.797Z,6.38
2022-07-25T14:27:39.941Z,5.63
2022-07-25T14:30:11.199Z,6.07
2022-07-25T14:32:39.938Z,6.82
2022-07-25T14:35:09.896Z,5.55
2022-07-25T14:37:39.019Z,5.82
2022-07-25T14:40:11.637Z,5.90
2022-07-25T14:42:41.814Z,5.72
2022-07-25T14:45:12.211Z,5.90
2022-07-25T14:47:42.014Z,5.70
2022-07-25T14:50:12.416Z,5.70
2022-07-25T14:52:40.866Z,6.60
2022-07-25T14:55:11.574Z,5.47
2022-07-25T14:57:40.137Z,5.75
2022-07-25T15:00:11.156Z,5.93
2022-07-25T15:02:39.625Z,5.90
2022-07-25T15:05:08.791Z,6.05
2022-07-25T15:07:38.732Z,7.75
2022-07-25T15:10:08.380Z,7.28
2022-07-25T15:12:39.152Z,6.50
2022-07-25T15:15:08.879Z,6.28
2022-07-25T15:17:37.242Z,8.38
2022-07-25T15:20:07.669Z,5.28
2022-07-25T15:22:36.039Z,5.50
2022-07-25T15:25:44.984Z,5.95
2022-07-25T15:27:57.285Z,7.97
2022-07-25T15:30:29.334Z,6.20
2022-07-25T15:32:58.042Z,9.13
2022-07-25T15:35:27.412Z,8.50
2022-07-25T15:37:55.928Z,7.97
2022-07-25T15:40:24.709Z,5.65
2022-07-25T15:42:53.569Z,6.03
2022-07-25T15:45:32.847Z,8.05
2022-07-25T15:48:03.727Z,6.53
2022-07-25T15:50:32.249Z,6.55
2022-07-25T15:53:01.534Z,6.90
2022-07-25T15:55:30.489Z,6.63
2022-07-25T15:58:00.335Z,6.32
2022-07-25T16:00:30.446Z,6.68
2022-07-25T16:02:59.685Z,5.93
2022-07-25T16:05:30.820Z,6.35
2022-07-25T16:08:02.080Z,8.70
2022-07-25T16:10:32.159Z,6.70
2022-07-25T16:13:01.036Z,6.35
2022-07-25T16:15:31.832Z,6.45
2022-07-25T16:18:02.733Z,6.47
2022-07-25T16:20:33.890Z,6.63
2022-07-25T16:23:02.989Z,6.50
2022-07-25T16:25:32.271Z,6.00
2022-07-25T16:28:01.066Z,6.22
2022-07-25T16:30:31.301Z,6.10
2022-07-25T16:33:00.734Z,6.50
2022-07-25T16:35:29.145Z,6.75
2022-07-25T16:37:58.011Z,6.13
2022-07-25T16:40:30.663Z,5.97
2022-07-25T16:43:00.751Z,6.65
2022-07-25T16:45:29.382Z,6.35
2022-07-25T16:47:59.233Z,6.78
2022-07-25T16:50:27.597Z,9.60
2022-07-25T16:52:56.318Z,5.90
2022-07-25T16:55:24.702Z,6.20
2022-07-25T16:57:53.772Z,5.85
2022-07-25T17:00:22.671Z,5.85
2022-07-25T17:02:51.017Z,7.78
2022-07-25T17:05:22.869Z,7.75
2022-07-25T17:07:59.016Z,6.65
2022-07-25T17:10:28.610Z,7.53
2022-07-25T17:12:57.126Z,6.18
2022-07-25T17:15:26.503Z,6.30
2022-07-25T17:17:54.834Z,6.32
2022-07-25T17:20:25.197Z,5.78
2022-07-25T17:22:53.660Z,7.43
2022-07-25T17:25:22.565Z,6.07
2022-07-25T17:27:51.409Z,10.60
2022-07-25T17:30:19.781Z,7.18
2022-07-25T17:32:48.504Z,7.28
2022-07-25T17:35:16.884Z,17.42
2022-07-25T17:37:47.402Z,16.33
2022-07-25T17:40:15.790Z,17.17
2022-07-25T17:42:47.199Z,10.07
2022-07-25T17:45:16.593Z,8.38
2022-07-25T17:47:45.354Z,12.52
2022-07-25T17:50:14.321Z,11.07
2022-07-25T17:52:43.109Z,13.63
2022-07-25T17:55:13.548Z,11.30
2022-07-25T17:57:42.796Z,9.07
2022-07-25T18:00:12.892Z,13.27
2022-07-25T18:02:42.159Z,11.38
2022-07-25T18:05:10.724Z,9.35
2022-07-25T18:07:42.158Z,11.77
2022-07-25T18:10:12.617Z,18.38
2022-07-25T18:12:41.185Z,10.30
2022-07-25T18:15:12.182Z,12.05
2022-07-25T18:17:42.552Z,9.40
2022-07-25T18:20:13.139Z,7.72
2022-07-25T18:22:42.076Z,8.02
2022-07-25T18:25:14.681Z,9.57
2022-07-25T18:27:43.334Z,9.25
2022-07-25T18:30:13.290Z,9.02
2022-07-25T18:32:42.688Z,9.50
2022-07-25T18:35:12.363Z,13.13
2022-07-25T18:37:41.350Z,12.70
2022-07-25T18:40:12.380Z,8.82
2022-07-25T18:42:41.230Z,8.85
2022-07-25T18:45:11.108Z,9.10
2022-07-25T18:47:40.287Z,7.93
2022-07-25T18:50:09.610Z,9.40
2022-07-25T18:52:39.007Z,14.52
2022-07-25T18:55:09.238Z,11.70
2022-07-25T18:57:39.446Z,11.23
2022-07-25T19:00:09.324Z,7.50
2022-07-25T19:02:37.745Z,10.75
2022-07-25T19:05:08.276Z,9.70
2022-07-25T19:07:37.292Z,8.85
2022-07-25T19:10:06.636Z,7.93
2022-07-25T19:12:35.108Z,8.57
2022-07-25T19:15:05.961Z,10.88
2022-07-25T19:17:35.012Z,8.68
2022-07-25T19:20:04.129Z,15.35
2022-07-25T19:22:32.469Z,9.57
2022-07-25T19:25:05.647Z,10.68
2022-07-25T19:27:34.141Z,10.63
2022-07-25T19:30:03.825Z,8.75
2022-07-25T19:32:33.625Z,9.57
2022-07-25T19:35:02.327Z,6.80
2022-07-25T19:37:30.691Z,8.98
2022-07-25T19:39:59.124Z,8.75
2022-07-25T19:42:28.353Z,12.25
2022-07-25T19:44:56.703Z,8.32
2022-07-25T19:47:25.988Z,9.65
2022-07-25T19:49:55.802Z,11.82
2022-07-25T19:52:24.867Z,9.57
2022-07-25T19:54:54.524Z,9.80
2022-07-25T19:57:23.447Z,9.65
2022-07-25T19:59:51.759Z,8.98
2022-07-25T20:02:20.731Z,11.20
2022-07-25T20:04:49.093Z,8.43
2022-07-25T20:07:19.213Z,9.95
2022-07-25T20:09:47.601Z,9.38
2022-07-25T20:12:16.820Z,8.45
2022-07-25T20:14:45.322Z,8.80
2022-07-25T20:17:15.250Z,9.88
2022-07-25T20:19:43.655Z,9.68
2022-07-25T20:22:12.126Z,7.78
2022-07-25T20:24:41.994Z,9.05
2022-07-25T20:27:10.381Z,8.40
2022-07-25T20:29:39.164Z,9.52
2022-07-25T20:32:07.547Z,8.20
2022-07-25T20:34:35.927Z,12.00
2022-07-25T20:37:04.445Z,11.00
2022-07-25T20:39:33.299Z,7.75
2022-07-25T20:42:03.721Z,7.82
2022-07-25T20:44:32.462Z,9.63
2022-07-25T20:47:00.860Z,10.05
2022-07-25T20:49:29.265Z,9.63
2022-07-25T20:51:57.595Z,8.00
2022-07-25T20:54:26.515Z,7.35
2022-07-25T20:56:54.910Z,7.45
2022-07-25T20:59:24.675Z,9.48
2022-07-25T21:01:53.224Z,10.43
2022-07-25T21:04:22.041Z,9.98
2022-07-25T21:06:50.403Z,12.68
2022-07-25T21:09:19.501Z,8.10
2022-07-25T21:11:47.960Z,8.32
2022-07-25T21:14:16.739Z,14.65
2022-07-25T21:16:46.531Z,8.95
2022-07-25T21:19:14.976Z,9.52
2022-07-25T21:21:43.651Z,11.77
2022-07-25T21:24:12.548Z,8.73
2022-07-25T21:26:40.924Z,10.77
2022-07-25T21:29:10.167Z,12.25
2022-07-25T21:31:39.663Z,11.85
2022-07-25T21:34:09.549Z,9.13
2022-07-25T21:36:38.611Z,11.43
2022-07-25T21:39:07.411Z,11.65
2022-07-25T21:41:36.045Z,11.60
2022-07-25T21:44:05.505Z,10.68
2022-07-25T21:46:33.960Z,8.02
2022-07-25T21:49:40.656Z,8.15
2022-07-25T21:52:13.385Z,13.85
2022-07-25T21:54:42.768Z,8.63
2022-07-25T21:57:13.279Z,8.50
2022-07-25T21:59:43.375Z,12.88
2022-07-25T22:02:11.898Z,11.05
2022-07-25T22:04:40.704Z,12.73
2022-07-25T22:07:10.547Z,12.35
2022-07-25T22:09:39.232Z,10.85
2022-07-25T22:12:08.408Z,9.15
2022-07-25T22:14:38.218Z,10.57
2022-07-25T22:17:06.670Z,12.90
2022-07-25T22:19:35.497Z,8.32
2022-07-25T22:22:04.040Z,11.18
2022-07-25T22:24:33.939Z,10.10
2022-07-25T22:27:02.301Z,9.80
2022-07-25T22:29:31.428Z,9.85
2022-07-25T22:32:00.341Z,9.88
2022-07-25T22:34:29.293Z,10.68
2022-07-25T22:36:58.116Z,12.77
2022-07-25T22:39:26.488Z,9.82
2022-07-25T22:41:56.204Z,12.90
2022-07-25T22:44:24.626Z,11.07
2022-07-25T22:46:53.440Z,12.10
2022-07-25T22:49:23.262Z,8.77
2022-07-25T22:51:52.168Z,9.35
2022-07-25T22:54:20.549Z,10.05
2022-07-25T22:56:49.391Z,10.00
2022-07-25T22:59:19.871Z,10.85
2022-07-25T23:01:48.324Z,9.98
2022-07-25T23:04:17.170Z,10.25
2022-07-25T23:06:46.021Z,9.13
2022-07-25T23:09:14.492Z,9.35
2022-07-25T23:11:43.626Z,9.95
2022-07-25T23:14:12.385Z,8.40
2022-07-25T23:16:42.905Z,10.40
2022-07-25T23:19:11.393Z,8.20
2022-07-25T23:21:40.537Z,12.18
2022-07-25T23:24:09.377Z,8.18
2022-07-25T23:26:37.702Z,9.05
2022-07-25T23:29:06.709Z,10.05
2022-07-25T23:31:35.401Z,10.77
2022-07-25T23:34:06.559Z,7.63
2022-07-25T23:36:34.887Z,9.85
2022-07-25T23:39:04.343Z,9.43
2022-07-25T23:41:32.724Z,8.25
2022-07-25T23:44:03.729Z,8.52
2022-07-25T23:46:33.524Z,8.07
2022-07-25T23:49:07.085Z,8.80
2022-07-25T23:51:35.972Z,11.68
2022-07-25T23:54:04.564Z,8.63
2022-07-25T23:56:33.021Z,7.30
2022-07-25T23:59:02.285Z,9.73
